Time;durP1;ratioP1;P1;durP2;ratioP2;P2;SDS_P1;SDS_P2;PMS_P1;PMS_P2;Temp;Humidity;BMP_temperature;BMP_pressure;BME280_temperature;BME280_humidity;BME280_pressure;Samples;Min_cycle;Max_cycle;Signal;HPM_P1;HPM_P2
2022/10/25 00:00:44;;;;;;;22.23;12.83;;;;;;;;;;5029582;28;20249;-71
2022/10/25 00:03:11;;;;;;;20.37;12.87;;;;;;;;;;5028356;28;20227;-70
2022/10/25 00:05:38;;;;;;;20.97;13.67;;;;;;;;;;5011909;28;20215;-72
2022/10/25 00:08:04;;;;;;;25.13;14.47;;;;;;;;;;5029325;28;20209;-72
2022/10/25 00:10:31;;;;;;;22.97;14.50;;;;;;;;;;5029392;28;20187;-70
2022/10/25 00:12:58;;;;;;;22.47;14.10;;;;;;;;;;5012174;28;20278;-70
2022/10/25 00:15:24;;;;;;;23.40;14.20;;;;;;;;;;5029002;28;20325;-72
2022/10/25 00:17:51;;;;;;;21.07;14.10;;;;;;;;;;5011982;28;20187;-71
2022/10/25 00:20:18;;;;;;;22.40;13.60;;;;;;;;;;5011523;28;20191;-71
2022/10/25 00:22:45;;;;;;;18.13;12.67;;;;;;;;;;5029058;28;20215;-71
2022/10/25 00:25:12;;;;;;;20.20;13.70;;;;;;;;;;5012039;28;20636;-71
2022/10/25 00:27:39;;;;;;;20.70;12.27;;;;;;;;;;5012051;28;20203;-70
2022/10/25 00:30:06;;;;;;;22.27;13.80;;;;;;;;;;5027603;28;20199;-71
2022/10/25 00:32:33;;;;;;;21.10;13.70;;;;;;;;;;5029112;28;20187;-71
2022/10/25 00:34:59;;;;;;;20.03;12.90;;;;;;;;;;5032396;28;20187;-71
2022/10/25 00:37:26;;;;;;;22.67;12.67;;;;;;;;;;5032024;28;20203;-72
2022/10/25 00:39:53;;;;;;;21.37;13.57;;;;;;;;;;5015624;28;20195;-71
2022/10/25 00:42:24;;;;;;;20.93;13.37;;;;;;;;;;5033034;28;20601;-73
2022/10/25 00:44:57;;;;;;;21.83;12.93;;;;;;;;;;5015545;28;20191;-71
2022/10/25 00:47:29;;;;;;;19.77;13.43;;;;;;;;;;5032799;28;20218;-72
2022/10/25 00:49:57;;;;;;;22.87;13.23;;;;;;;;;;5015415;28;20202;-72
2022/10/25 00:52:24;;;;;;;21.40;12.83;;;;;;;;;;5014774;28;20192;-71
2022/10/25 00:54:51;;;;;;;18.50;13.00;;;;;;;;;;5015237;28;20195;-71
2022/10/25 00:57:26;;;;;;;20.83;13.47;;;;;;;;;;5015291;28;20195;-72
2022/10/25 00:59:52;;;;;;;21.70;12.30;;;;;;;;;;4999039;28;20195;-71
2022/10/25 01:02:19;;;;;;;19.73;12.97;;;;;;;;;;5015026;28;20188;-70
2022/10/25 01:04:46;;;;;;;19.20;12.43;;;;;;;;;;5014669;28;20187;-72
2022/10/25 01:07:13;;;;;;;17.63;11.87;;;;;;;;;;5032853;28;20192;-73
2022/10/25 01:09:40;;;;;;;19.03;12.03;;;;;;;;;;5031648;28;20448;-71
2022/10/25 01:12:06;;;;;;;18.60;11.07;;;;;;;;;;5015002;28;20188;-71
2022/10/25 01:14:50;;;;;;;14.77;9.73;;;;;;;;;;5014556;28;20180;-71
2022/10/25 01:17:26;;;;;;;16.40;9.57;;;;;;;;;;5032432;28;20190;-72
2022/10/25 01:20:13;;;;;;;13.67;9.93;;;;;;;;;;5032404;28;20192;-71
2022/10/25 01:22:40;;;;;;;19.63;11.13;;;;;;;;;;5014758;28;20223;-71
2022/10/25 01:25:42;;;;;;;20.07;11.27;;;;;;;;;;5032297;28;20345;-72
2022/10/25 01:28:28;;;;;;;16.73;10.63;;;;;;;;;;5031449;28;20694;-71
2022/10/25 01:31:13;;;;;;;17.80;9.83;;;;;;;;;;5030948;28;20207;-71
2022/10/25 01:33:39;;;;;;;14.13;9.90;;;;;;;;;;5032105;28;20233;-72
2022/10/25 01:36:09;;;;;;;14.83;9.37;;;;;;;;;;5030379;28;20188;-71
2022/10/25 01:38:50;;;;;;;16.43;9.73;;;;;;;;;;5030838;28;20249;-71
2022/10/25 01:41:20;;;;;;;17.37;9.87;;;;;;;;;;5014301;28;20184;-71
2022/10/25 01:44:02;;;;;;;19.63;10.07;;;;;;;;;;5014224;28;20230;-71
2022/10/25 01:46:33;;;;;;;15.80;10.23;;;;;;;;;;5031677;28;21405;-71
2022/10/25 01:49:04;;;;;;;15.23;10.53;;;;;;;;;;5031676;28;20265;-71
2022/10/25 01:51:32;;;;;;;21.50;11.57;;;;;;;;;;4997723;28;20195;-71
2022/10/25 01:53:58;;;;;;;17.93;10.60;;;;;;;;;;4998150;28;20646;-71
2022/10/25 01:56:26;;;;;;;18.07;10.87;;;;;;;;;;5031480;28;20191;-71
2022/10/25 01:59:03;;;;;;;15.47;10.27;;;;;;;;;;5031703;28;20196;-71
2022/10/25 02:01:36;;;;;;;14.57;9.73;;;;;;;;;;5031837;28;20245;-71
2022/10/25 02:04:22;;;;;;;18.27;9.53;;;;;;;;;;5031804;28;20204;-71
2022/10/25 02:06:52;;;;;;;20.50;9.23;;;;;;;;;;5030146;28;20585;-71
2022/10/25 02:09:24;;;;;;;13.73;8.97;;;;;;;;;;5031482;28;20250;-72
2022/10/25 02:11:51;;;;;;;15.37;9.47;;;;;;;;;;5031560;28;20217;-71
2022/10/25 02:14:33;;;;;;;15.63;9.60;;;;;;;;;;5031499;28;20257;-71
2022/10/25 02:17:05;;;;;;;15.07;10.07;;;;;;;;;;5031367;28;20199;-71
2022/10/25 02:19:36;;;;;;;17.50;9.27;;;;;;;;;;5028728;28;20269;-71
2022/10/25 02:22:03;;;;;;;18.37;8.90;;;;;;;;;;5013790;28;20188;-71
2022/10/25 02:24:30;;;;;;;11.70;8.77;;;;;;;;;;5012859;28;20223;-71
2022/10/25 02:26:57;;;;;;;13.57;8.70;;;;;;;;;;5013834;28;20215;-71
2022/10/25 02:29:24;;;;;;;11.87;8.83;;;;;;;;;;5013615;28;20194;-71
2022/10/25 02:31:50;;;;;;;13.40;9.37;;;;;;;;;;5030940;28;20210;-70
2022/10/25 02:34:17;;;;;;;21.13;9.83;;;;;;;;;;5031198;28;20187;-71
2022/10/25 02:36:51;;;;;;;13.50;8.97;;;;;;;;;;5013278;28;20195;-70
2022/10/25 02:39:19;;;;;;;14.20;9.80;;;;;;;;;;4997316;28;20195;-71
2022/10/25 02:41:45;;;;;;;14.10;9.83;;;;;;;;;;5030575;28;20188;-71
2022/10/25 02:44:12;;;;;;;15.80;9.50;;;;;;;;;;5029479;28;20278;-71
2022/10/25 02:46:39;;;;;;;17.07;9.07;;;;;;;;;;5030594;28;20191;-71
2022/10/25 02:49:06;;;;;;;17.97;9.30;;;;;;;;;;5012275;28;20255;-71
2022/10/25 02:51:32;;;;;;;16.50;9.43;;;;;;;;;;5030398;28;20267;-70
2022/10/25 02:53:59;;;;;;;14.07;9.30;;;;;;;;;;5030824;28;20199;-71
2022/10/25 02:56:26;;;;;;;17.13;9.87;;;;;;;;;;5012179;28;20217;-71
2022/10/25 02:58:54;;;;;;;15.97;10.13;;;;;;;;;;5030571;28;20270;-71
2022/10/25 03:01:20;;;;;;;17.77;10.17;;;;;;;;;;5030526;28;20183;-71
2022/10/25 03:03:48;;;;;;;19.07;10.50;;;;;;;;;;5029822;28;20281;-71
2022/10/25 03:06:14;;;;;;;19.70;10.70;;;;;;;;;;5029032;28;20210;-71
2022/10/25 03:08:41;;;;;;;17.17;10.13;;;;;;;;;;5030367;28;20191;-71
2022/10/25 03:11:08;;;;;;;15.60;10.60;;;;;;;;;;5007290;28;20215;-71
2022/10/25 03:13:35;;;;;;;19.20;10.37;;;;;;;;;;5011176;28;20262;-71
2022/10/25 03:16:01;;;;;;;19.13;11.03;;;;;;;;;;5010512;28;20208;-71
2022/10/25 03:18:28;;;;;;;19.57;11.30;;;;;;;;;;5008936;28;20197;-71
2022/10/25 03:20:55;;;;;;;20.83;12.27;;;;;;;;;;5009163;28;20273;-71
2022/10/25 03:23:22;;;;;;;18.03;11.80;;;;;;;;;;5008900;28;20306;-71
2022/10/25 03:25:52;;;;;;;20.00;12.00;;;;;;;;;;5009884;28;20712;-71
2022/10/25 03:28:20;;;;;;;16.30;11.40;;;;;;;;;;5021790;28;20188;-71
2022/10/25 03:30:47;;;;;;;18.00;10.63;;;;;;;;;;5029659;28;20266;-71
2022/10/25 03:33:14;;;;;;;16.83;10.13;;;;;;;;;;5030022;28;20242;-71
2022/10/25 03:35:40;;;;;;;17.27;10.93;;;;;;;;;;5028999;28;20187;-71
2022/10/25 03:38:10;;;;;;;21.00;11.47;;;;;;;;;;5022523;28;20737;-73
2022/10/25 03:40:37;;;;;;;17.77;11.77;;;;;;;;;;5023751;28;20274;-71
2022/10/25 03:43:04;;;;;;;17.87;11.17;;;;;;;;;;5030463;28;20234;-70
2022/10/25 03:45:30;;;;;;;20.67;11.73;;;;;;;;;;5037376;28;20214;-72
2022/10/25 03:47:57;;;;;;;17.77;11.07;;;;;;;;;;5029852;28;20303;-72
2022/10/25 03:50:24;;;;;;;17.03;11.27;;;;;;;;;;5032801;28;20972;-73
2022/10/25 03:52:51;;;;;;;21.63;12.80;;;;;;;;;;5035586;28;20202;-72
2022/10/25 03:55:18;;;;;;;20.30;12.10;;;;;;;;;;5025889;28;20218;-72
2022/10/25 03:57:44;;;;;;;16.53;10.90;;;;;;;;;;5034597;28;20194;-72
2022/10/25 04:00:12;;;;;;;17.43;10.83;;;;;;;;;;5022191;28;20202;-72
2022/10/25 04:02:39;;;;;;;15.17;11.33;;;;;;;;;;5037296;28;20201;-71
2022/10/25 04:05:06;;;;;;;16.40;10.50;;;;;;;;;;5030491;28;20273;-71
2022/10/25 04:07:32;;;;;;;17.67;10.47;;;;;;;;;;5029711;28;20192;-71
2022/10/25 04:09:59;;;;;;;13.70;10.03;;;;;;;;;;5030897;28;20285;-73
2022/10/25 04:12:27;;;;;;;14.97;10.00;;;;;;;;;;5024702;28;20217;-71
2022/10/25 04:14:53;;;;;;;16.20;10.40;;;;;;;;;;5020759;28;20876;-71
2022/10/25 04:17:20;;;;;;;52.00;9.30;;;;;;;;;;5019901;28;20665;-72
2022/10/25 04:19:47;;;;;;;14.00;9.20;;;;;;;;;;5019145;28;20198;-71
2022/10/25 04:22:14;;;;;;;12.60;9.10;;;;;;;;;;5028946;28;20553;-71
2022/10/25 04:24:40;;;;;;;15.37;9.57;;;;;;;;;;5023781;28;20237;-70
2022/10/25 04:27:07;;;;;;;14.23;10.03;;;;;;;;;;5028479;28;20195;-69
2022/10/25 04:29:34;;;;;;;18.67;10.47;;;;;;;;;;5023252;28;20252;-70
2022/10/25 04:32:01;;;;;;;15.53;10.40;;;;;;;;;;5032399;28;20709;-69
2022/10/25 04:34:27;;;;;;;17.70;10.27;;;;;;;;;;5003774;28;20630;-69
2022/10/25 04:36:54;;;;;;;17.27;10.20;;;;;;;;;;5011566;28;20615;-70
2022/10/25 04:39:21;;;;;;;16.97;11.37;;;;;;;;;;5032662;28;20191;-68
2022/10/25 04:41:47;;;;;;;18.83;11.93;;;;;;;;;;5031145;28;20266;-69
2022/10/25 04:44:14;;;;;;;15.40;11.70;;;;;;;;;;5030928;28;20705;-69
2022/10/25 04:46:41;;;;;;;16.20;11.67;;;;;;;;;;5030967;28;20199;-69
2022/10/25 04:49:14;;;;;;;19.00;12.50;;;;;;;;;;5012185;28;20192;-69
2022/10/25 04:51:40;;;;;;;16.87;12.47;;;;;;;;;;5007375;28;20192;-69
2022/10/25 04:54:07;;;;;;;18.57;12.07;;;;;;;;;;5022986;28;20227;-69
2022/10/25 04:56:34;;;;;;;18.00;12.73;;;;;;;;;;5030933;28;20196;-70
2022/10/25 04:59:01;;;;;;;19.33;13.07;;;;;;;;;;5023094;28;20219;-69
2022/10/25 05:01:28;;;;;;;22.77;13.07;;;;;;;;;;5015763;28;20246;-71
2022/10/25 05:03:55;;;;;;;17.70;12.37;;;;;;;;;;5019068;28;20370;-71
2022/10/25 05:06:22;;;;;;;17.10;12.73;;;;;;;;;;5002993;28;20253;-72
2022/10/25 05:08:50;;;;;;;19.07;13.83;;;;;;;;;;5028771;28;20287;-73
2022/10/25 05:11:17;;;;;;;23.80;13.40;;;;;;;;;;5026760;28;20198;-70
2022/10/25 05:13:44;;;;;;;23.60;13.43;;;;;;;;;;5018939;28;20219;-70
2022/10/25 05:16:13;;;;;;;20.67;14.33;;;;;;;;;;5009702;28;20267;-70
2022/10/25 05:18:41;;;;;;;23.83;13.37;;;;;;;;;;5011348;28;20199;-71
2022/10/25 05:21:08;;;;;;;27.00;14.03;;;;;;;;;;5030395;28;20225;-69
2022/10/25 05:23:35;;;;;;;20.87;13.63;;;;;;;;;;5031026;28;20215;-69
2022/10/25 05:26:02;;;;;;;21.00;13.40;;;;;;;;;;5030975;28;20196;-69
2022/10/25 05:28:29;;;;;;;19.17;13.77;;;;;;;;;;5011950;28;20213;-69
2022/10/25 05:30:56;;;;;;;22.10;14.87;;;;;;;;;;5014065;28;20222;-70
2022/10/25 05:33:23;;;;;;;24.60;14.57;;;;;;;;;;5032308;28;20194;-69
2022/10/25 05:35:50;;;;;;;24.50;14.23;;;;;;;;;;5032194;28;20241;-69
2022/10/25 05:38:17;;;;;;;21.27;13.63;;;;;;;;;;5032125;28;20194;-69
2022/10/25 05:40:50;;;;;;;20.57;14.60;;;;;;;;;;5032103;28;20183;-69
2022/10/25 05:43:17;;;;;;;28.13;15.33;;;;;;;;;;5014869;28;20242;-69
2022/10/25 05:45:44;;;;;;;24.23;15.63;;;;;;;;;;5032126;28;20973;-69
2022/10/25 05:48:11;;;;;;;23.87;15.77;;;;;;;;;;5032038;28;20208;-69
2022/10/25 05:50:38;;;;;;;21.43;13.20;;;;;;;;;;5032454;28;20188;-69
2022/10/25 05:53:04;;;;;;;18.50;13.90;;;;;;;;;;5013963;28;20207;-69
2022/10/25 05:55:32;;;;;;;22.73;13.97;;;;;;;;;;5032290;28;20184;-69
2022/10/25 05:57:59;;;;;;;23.20;14.03;;;;;;;;;;5032020;28;20201;-69
2022/10/25 06:00:26;;;;;;;21.83;13.90;;;;;;;;;;5013971;28;20674;-69
2022/10/25 06:02:53;;;;;;;24.40;13.93;;;;;;;;;;5031825;28;20207;-69
2022/10/25 06:05:20;;;;;;;20.47;13.37;;;;;;;;;;5031549;28;20235;-69
2022/10/25 06:07:47;;;;;;;21.87;13.20;;;;;;;;;;5031267;28;20180;-68
2022/10/25 06:10:14;;;;;;;19.50;13.63;;;;;;;;;;5032141;28;20213;-67
2022/10/25 06:12:41;;;;;;;25.00;13.00;;;;;;;;;;5031691;28;20253;-67
2022/10/25 06:15:10;;;;;;;19.60;13.23;;;;;;;;;;5031389;28;20179;-69
2022/10/25 06:17:37;;;;;;;22.80;12.53;;;;;;;;;;5030407;28;20702;-68
2022/10/25 06:20:04;;;;;;;19.17;13.23;;;;;;;;;;5031553;28;21022;-69
2022/10/25 06:22:31;;;;;;;24.00;13.23;;;;;;;;;;5031528;28;20524;-68
2022/10/25 06:24:58;;;;;;;20.73;13.40;;;;;;;;;;5031344;28;20224;-69
2022/10/25 06:27:25;;;;;;;19.70;12.97;;;;;;;;;;5031397;28;20198;-69
2022/10/25 06:29:51;;;;;;;19.27;13.23;;;;;;;;;;5030123;28;20197;-69
2022/10/25 06:32:18;;;;;;;25.97;15.17;;;;;;;;;;5030392;28;20202;-67
2022/10/25 06:34:45;;;;;;;24.50;15.13;;;;;;;;;;5029923;28;20551;-69
2022/10/25 06:37:12;;;;;;;21.40;15.40;;;;;;;;;;5031654;28;20253;-69
2022/10/25 06:39:38;;;;;;;27.77;15.97;;;;;;;;;;5030746;28;20210;-69
2022/10/25 06:42:05;;;;;;;22.30;15.47;;;;;;;;;;5012726;28;20929;-69
2022/10/25 06:44:32;;;;;;;24.60;15.00;;;;;;;;;;5029659;28;20691;-69
2022/10/25 06:46:59;;;;;;;24.50;15.27;;;;;;;;;;5030871;28;20195;-69
2022/10/25 06:49:44;;;;;;;22.30;14.77;;;;;;;;;;5030828;28;20634;-69
2022/10/25 06:52:11;;;;;;;15.67;12.23;;;;;;;;;;5031000;28;20551;-69
2022/10/25 06:54:37;;;;;;;18.80;12.00;;;;;;;;;;5030653;28;20191;-69
2022/10/25 06:57:04;;;;;;;15.67;10.63;;;;;;;;;;5030987;28;20275;-69
2022/10/25 06:59:31;;;;;;;15.87;10.60;;;;;;;;;;5028948;28;20219;-69
2022/10/25 07:01:57;;;;;;;13.97;9.53;;;;;;;;;;5047462;28;20767;-68
2022/10/25 07:04:25;;;;;;;13.73;9.00;;;;;;;;;;5038291;28;20203;-69
2022/10/25 07:06:51;;;;;;;14.73;8.73;;;;;;;;;;5029361;28;20716;-70
2022/10/25 07:09:21;;;;;;;13.50;8.30;;;;;;;;;;5030426;28;20198;-69
2022/10/25 07:11:47;;;;;;;11.77;7.87;;;;;;;;;;5030008;28;20545;-70
2022/10/25 07:14:14;;;;;;;11.87;7.30;;;;;;;;;;5030421;28;20188;-70
2022/10/25 07:16:41;;;;;;;11.27;6.87;;;;;;;;;;5029317;28;20253;-70
2022/10/25 07:19:09;;;;;;;11.50;7.10;;;;;;;;;;5030597;28;20192;-69
2022/10/25 07:21:36;;;;;;;12.20;6.33;;;;;;;;;;5030253;28;20729;-71
2022/10/25 07:24:03;;;;;;;14.13;7.40;;;;;;;;;;5029067;28;20777;-70
2022/10/25 07:26:31;;;;;;;10.27;5.50;;;;;;;;;;5030179;28;20195;-69
2022/10/25 07:28:58;;;;;;;10.33;6.00;;;;;;;;;;5030428;28;20195;-70
2022/10/25 07:31:26;;;;;;;8.03;5.33;;;;;;;;;;5029327;28;20197;-70
2022/10/25 07:33:53;;;;;;;10.07;5.43;;;;;;;;;;5028852;28;20197;-70
2022/10/25 07:36:20;;;;;;;10.90;5.43;;;;;;;;;;5028849;28;20198;-70
2022/10/25 07:38:46;;;;;;;10.07;5.40;;;;;;;;;;5029769;28;20191;-70
2022/10/25 07:41:13;;;;;;;8.80;5.50;;;;;;;;;;5030299;28;20215;-70
2022/10/25 07:43:40;;;;;;;9.30;5.03;;;;;;;;;;5028635;28;20192;-70
2022/10/25 07:46:07;;;;;;;8.10;5.00;;;;;;;;;;5030227;28;20554;-69
2022/10/25 07:48:34;;;;;;;8.97;4.80;;;;;;;;;;5028677;28;20689;-70
2022/10/25 07:51:04;;;;;;;6.47;4.53;;;;;;;;;;5029802;28;20203;-70
2022/10/25 07:53:31;;;;;;;8.20;4.33;;;;;;;;;;5028529;28;20243;-70
2022/10/25 07:55:58;;;;;;;9.80;4.50;;;;;;;;;;5029918;28;20188;-69
2022/10/25 07:58:24;;;;;;;13.90;4.83;;;;;;;;;;5028930;28;20191;-69
2022/10/25 08:00:51;;;;;;;9.67;4.33;;;;;;;;;;5029722;28;20191;-69
2022/10/25 08:03:18;;;;;;;8.03;4.53;;;;;;;;;;5026426;28;20184;-70
2022/10/25 08:05:46;;;;;;;9.17;3.90;;;;;;;;;;5009645;28;20932;-70
2022/10/25 08:08:13;;;;;;;7.10;4.10;;;;;;;;;;5010043;28;20187;-70
2022/10/25 08:10:40;;;;;;;6.70;4.13;;;;;;;;;;5010030;28;20672;-70
2022/10/25 08:13:07;;;;;;;8.30;3.77;;;;;;;;;;5009884;28;20183;-69
2022/10/25 08:15:35;;;;;;;8.17;3.70;;;;;;;;;;5009842;28;20188;-70
2022/10/25 08:18:02;;;;;;;6.83;3.90;;;;;;;;;;5009582;28;20191;-71
2022/10/25 08:20:28;;;;;;;7.03;3.80;;;;;;;;;;5009506;28;20207;-70
2022/10/25 08:23:15;;;;;;;7.93;3.60;;;;;;;;;;4995276;28;20651;-69
2022/10/25 08:25:42;;;;;;;6.87;4.30;;;;;;;;;;5009633;28;20244;-68
2022/10/25 08:28:09;;;;;;;8.37;3.70;;;;;;;;;;5010384;28;20199;-70
2022/10/25 08:30:36;;;;;;;10.27;3.40;;;;;;;;;;5009662;28;20219;-71
2022/10/25 08:33:02;;;;;;;9.17;3.27;;;;;;;;;;5009711;28;20192;-70
2022/10/25 08:35:33;;;;;;;9.57;3.60;;;;;;;;;;5009548;28;20545;-70
2022/10/25 08:38:00;;;;;;;8.47;3.30;;;;;;;;;;4992178;28;20192;-70
2022/10/25 08:40:34;;;;;;;8.23;3.47;;;;;;;;;;4992112;28;20188;-70
2022/10/25 08:43:20;;;;;;;9.80;3.53;;;;;;;;;;4992353;28;20191;-70
2022/10/25 08:45:52;;;;;;;7.43;3.27;;;;;;;;;;5009310;28;20247;-70
2022/10/25 08:48:19;;;;;;;9.37;3.53;;;;;;;;;;4992564;28;20227;-70
2022/10/25 08:50:49;;;;;;;5.07;3.33;;;;;;;;;;4992194;28;20227;-69
2022/10/25 08:53:17;;;;;;;11.10;3.80;;;;;;;;;;4992217;28;20622;-70
2022/10/25 08:55:44;;;;;;;7.57;3.57;;;;;;;;;;4994767;28;20199;-70
2022/10/25 08:58:31;;;;;;;7.47;3.70;;;;;;;;;;5013672;28;20203;-69
2022/10/25 09:00:59;;;;;;;8.00;3.50;;;;;;;;;;5013351;28;20667;-69
2022/10/25 09:03:25;;;;;;;7.97;3.67;;;;;;;;;;5016967;28;20196;-69
2022/10/25 09:05:52;;;;;;;9.80;3.53;;;;;;;;;;5031609;28;20219;-70
2022/10/25 09:08:38;;;;;;;8.37;3.20;;;;;;;;;;5031603;28;20211;-69
2022/10/25 09:11:23;;;;;;;8.17;3.40;;;;;;;;;;5032759;28;20183;-69
2022/10/25 09:13:50;;;;;;;9.87;3.90;;;;;;;;;;5032673;28;20202;-70
2022/10/25 09:16:16;;;;;;;6.53;3.70;;;;;;;;;;5032849;28;20171;-69
2022/10/25 09:18:44;;;;;;;9.67;3.77;;;;;;;;;;5032566;28;20215;-69
2022/10/25 09:21:21;;;;;;;6.70;3.57;;;;;;;;;;5032678;28;20194;-69
2022/10/25 09:23:52;;;;;;;8.77;3.57;;;;;;;;;;5032626;28;20194;-69
2022/10/25 09:26:51;;;;;;;8.20;3.50;;;;;;;;;;5031237;28;20682;-70
2022/10/25 09:29:23;;;;;;;7.70;3.40;;;;;;;;;;5020716;28;20211;-70
2022/10/25 09:31:51;;;;;;;6.10;2.80;;;;;;;;;;5032419;28;20199;-68
2022/10/25 09:34:18;;;;;;;7.73;3.10;;;;;;;;;;5031498;28;20200;-69
2022/10/25 09:36:48;;;;;;;7.70;2.97;;;;;;;;;;5032139;28;20184;-69
2022/10/25 09:39:19;;;;;;;5.83;2.30;;;;;;;;;;5031193;28;20225;-69
2022/10/25 09:41:47;;;;;;;7.97;2.40;;;;;;;;;;5032022;28;20182;-69
2022/10/25 09:44:32;;;;;;;7.17;2.50;;;;;;;;;;5032313;28;20191;-69
2022/10/25 09:47:18;;;;;;;9.23;2.70;;;;;;;;;;5031975;28;20191;-69
2022/10/25 09:49:48;;;;;;;8.43;2.17;;;;;;;;;;5031636;28;20245;-69
2022/10/25 09:52:14;;;;;;;6.33;2.40;;;;;;;;;;5031430;28;20195;-69
2022/10/25 09:54:45;;;;;;;6.23;2.60;;;;;;;;;;5032106;28;20195;-68
2022/10/25 09:57:12;;;;;;;6.77;2.90;;;;;;;;;;5030622;28;20195;-68
2022/10/25 09:59:38;;;;;;;12.77;3.37;;;;;;;;;;5030888;28;20681;-68
2022/10/25 10:02:08;;;;;;;11.30;3.40;;;;;;;;;;5030507;28;20946;-70
2022/10/25 10:04:36;;;;;;;5.60;3.27;;;;;;;;;;5020762;28;20274;-69
2022/10/25 10:07:17;;;;;;;6.10;2.73;;;;;;;;;;5045660;28;20278;-69
2022/10/25 10:09:44;;;;;;;8.90;3.30;;;;;;;;;;5031718;28;20190;-69
2022/10/25 10:12:26;;;;;;;6.53;2.90;;;;;;;;;;5031678;28;20214;-69
2022/10/25 10:14:57;;;;;;;6.23;3.40;;;;;;;;;;5030705;28;20207;-69
2022/10/25 10:17:41;;;;;;;10.70;3.03;;;;;;;;;;5044894;28;20168;-69
2022/10/25 10:20:09;;;;;;;11.43;2.90;;;;;;;;;;5030362;28;20209;-69
2022/10/25 10:22:54;;;;;;;7.10;3.03;;;;;;;;;;5031417;28;20246;-68
2022/10/25 10:25:24;;;;;;;7.23;3.00;;;;;;;;;;5031944;28;20223;-69
2022/10/25 10:27:52;;;;;;;6.70;2.77;;;;;;;;;;5046913;28;20723;-69
2022/10/25 10:30:25;;;;;;;5.13;2.93;;;;;;;;;;5046727;28;20191;-69
2022/10/25 10:33:13;;;;;;;8.37;2.90;;;;;;;;;;5044416;28;20171;-68
2022/10/25 10:35:39;;;;;;;6.40;2.60;;;;;;;;;;5046311;28;20215;-68
2022/10/25 10:38:13;;;;;;;10.27;2.80;;;;;;;;;;5030817;28;20197;-67
2022/10/25 10:40:40;;;;;;;8.13;2.77;;;;;;;;;;5031290;28;20289;-67
2022/10/25 10:43:22;;;;;;;9.57;2.33;;;;;;;;;;5031201;28;20712;-67
2022/10/25 10:45:49;;;;;;;10.53;2.90;;;;;;;;;;5030807;28;20698;-69
2022/10/25 10:48:20;;;;;;;12.07;3.10;;;;;;;;;;5030825;28;20670;-69
2022/10/25 10:50:47;;;;;;;10.13;2.80;;;;;;;;;;5045992;28;20176;-69
2022/10/25 10:53:21;;;;;;;9.53;2.77;;;;;;;;;;5029624;28;20532;-69
2022/10/25 10:55:49;;;;;;;11.23;3.27;;;;;;;;;;5030792;28;20202;-69
2022/10/25 10:58:17;;;;;;;7.70;2.43;;;;;;;;;;5046416;28;20198;-69
2022/10/25 11:00:51;;;;;;;4.63;2.40;;;;;;;;;;5029506;28;20570;-68
2022/10/25 11:03:33;;;;;;;5.83;2.27;;;;;;;;;;5042938;28;20184;-69
2022/10/25 11:06:00;;;;;;;4.80;2.30;;;;;;;;;;5011123;28;20753;-69
2022/10/25 11:08:27;;;;;;;8.10;2.20;;;;;;;;;;5010477;28;20195;-69
2022/10/25 11:11:10;;;;;;;4.63;2.60;;;;;;;;;;5010761;28;20651;-69
2022/10/25 11:13:37;;;;;;;7.20;2.60;;;;;;;;;;4993762;28;20215;-69
2022/10/25 11:16:10;;;;;;;8.13;2.60;;;;;;;;;;5010941;28;20176;-69
2022/10/25 11:18:49;;;;;;;5.20;2.50;;;;;;;;;;5010589;28;20188;-68
2022/10/25 11:21:16;;;;;;;6.20;2.47;;;;;;;;;;4992898;28;20283;-69
2022/10/25 11:23:46;;;;;;;4.53;2.13;;;;;;;;;;5010664;28;20188;-68
2022/10/25 11:26:18;;;;;;;11.37;2.70;;;;;;;;;;5010465;28;20250;-68
2022/10/25 11:28:48;;;;;;;10.27;2.80;;;;;;;;;;4993095;28;20203;-68
2022/10/25 11:31:18;;;;;;;6.00;2.50;;;;;;;;;;4993499;28;20556;-69
2022/10/25 11:33:57;;;;;;;10.53;2.80;;;;;;;;;;5010259;28;20192;-69
2022/10/25 11:36:30;;;;;;;8.23;2.30;;;;;;;;;;5010077;28;20663;-69
2022/10/25 11:38:57;;;;;;;12.17;2.57;;;;;;;;;;5010833;28;20223;-68
2022/10/25 11:41:29;;;;;;;3.47;2.13;;;;;;;;;;5010128;28;20226;-69
2022/10/25 11:44:14;;;;;;;5.40;2.07;;;;;;;;;;4993099;28;20196;-68
2022/10/25 11:46:50;;;;;;;8.93;2.50;;;;;;;;;;4992734;28;20278;-68
2022/10/25 11:49:36;;;;;;;6.97;2.70;;;;;;;;;;4993219;28;20192;-68
2022/10/25 11:52:14;;;;;;;5.63;2.60;;;;;;;;;;5009919;28;20196;-69
2022/10/25 11:54:50;;;;;;;6.97;2.83;;;;;;;;;;5010146;28;20238;-68
2022/10/25 11:57:35;;;;;;;5.53;2.20;;;;;;;;;;4992871;28;20191;-68
2022/10/25 12:00:05;;;;;;;3.97;2.40;;;;;;;;;;5009970;28;20184;-68
2022/10/25 12:02:39;;;;;;;5.03;2.20;;;;;;;;;;4992961;28;20203;-68
2022/10/25 12:05:16;;;;;;;7.33;2.73;;;;;;;;;;5027210;28;20245;-68
2022/10/25 12:07:45;;;;;;;8.10;2.33;;;;;;;;;;5044720;28;20710;-68
2022/10/25 12:10:30;;;;;;;7.33;2.77;;;;;;;;;;5045538;28;20223;-68
2022/10/25 12:12:58;;;;;;;6.33;2.77;;;;;;;;;;5029706;28;20211;-68
2022/10/25 12:15:30;;;;;;;8.70;2.57;;;;;;;;;;5044363;28;20223;-68
2022/10/25 12:17:57;;;;;;;10.63;3.20;;;;;;;;;;5044845;28;20195;-68
2022/10/25 12:20:24;;;;;;;7.27;2.90;;;;;;;;;;5044996;28;20250;-67
2022/10/25 12:22:52;;;;;;;7.30;2.80;;;;;;;;;;5044810;28;20528;-68
2022/10/25 12:25:21;;;;;;;8.97;2.83;;;;;;;;;;5044979;28;20760;-67
2022/10/25 12:27:49;;;;;;;8.60;3.17;;;;;;;;;;5029362;28;20226;-69
2022/10/25 12:30:22;;;;;;;7.10;3.03;;;;;;;;;;5032002;28;20202;-68
2022/10/25 12:32:56;;;;;;;6.87;2.77;;;;;;;;;;5048811;28;20278;-68
2022/10/25 12:35:33;;;;;;;7.70;2.40;;;;;;;;;;5048624;28;20191;-68
2022/10/25 12:38:20;;;;;;;10.00;2.77;;;;;;;;;;5048570;28;20186;-68
2022/10/25 12:40:48;;;;;;;6.87;2.50;;;;;;;;;;5029519;28;20200;-68
2022/10/25 12:43:32;;;;;;;5.17;2.20;;;;;;;;;;5033566;28;20280;-68
2022/10/25 12:46:04;;;;;;;6.93;2.70;;;;;;;;;;5033295;28;20251;-68
2022/10/25 12:48:43;;;;;;;7.33;2.80;;;;;;;;;;5033312;28;20302;-68
2022/10/25 12:51:29;;;;;;;8.20;2.73;;;;;;;;;;5032270;28;20554;-68
2022/10/25 12:54:14;;;;;;;8.10;2.77;;;;;;;;;;5033185;28;20187;-68
2022/10/25 12:56:49;;;;;;;6.37;2.17;;;;;;;;;;5033297;28;20168;-68
2022/10/25 12:59:37;;;;;;;6.07;2.23;;;;;;;;;;5048621;28;20278;-69
2022/10/25 13:02:17;;;;;;;6.90;2.30;;;;;;;;;;5048114;28;20192;-69
2022/10/25 13:04:47;;;;;;;4.20;2.00;;;;;;;;;;5018097;28;20669;-69
2022/10/25 13:07:13;;;;;;;4.63;2.00;;;;;;;;;;5012058;28;20573;-69
2022/10/25 13:09:40;;;;;;;6.33;2.00;;;;;;;;;;5013181;28;20184;-66
2022/10/25 13:12:25;;;;;;;6.30;1.90;;;;;;;;;;5012634;28;20239;-69
2022/10/25 13:14:52;;;;;;;8.50;2.23;;;;;;;;;;4996175;28;20182;-68
2022/10/25 13:17:18;;;;;;;7.30;2.80;;;;;;;;;;4995649;28;20188;-69
2022/10/25 13:19:45;;;;;;;9.13;2.57;;;;;;;;;;5013146;28;20969;-67
2022/10/25 13:22:29;;;;;;;5.77;2.40;;;;;;;;;;5034560;28;20661;-68
2022/10/25 13:25:03;;;;;;;8.07;2.70;;;;;;;;;;5054292;28;20276;-67
2022/10/25 13:27:30;;;;;;;9.03;2.90;;;;;;;;;;5009376;28;20215;-67
2022/10/25 13:29:58;;;;;;;7.83;3.03;;;;;;;;;;5054333;28;20201;-66
2022/10/25 13:32:26;;;;;;;6.73;2.73;;;;;;;;;;5053390;28;20203;-68
2022/10/25 13:34:54;;;;;;;4.30;2.37;;;;;;;;;;5019467;28;20195;-68
2022/10/25 13:37:30;;;;;;;9.63;2.10;;;;;;;;;;5036091;28;20213;-68
2022/10/25 13:40:02;;;;;;;6.83;2.03;;;;;;;;;;5053095;28;20187;-68
2022/10/25 13:42:32;;;;;;;7.17;2.17;;;;;;;;;;5019641;28;20191;-67
2022/10/25 13:45:01;;;;;;;4.97;2.17;;;;;;;;;;5053845;28;20186;-68
2022/10/25 13:47:38;;;;;;;5.90;2.13;;;;;;;;;;5053820;28;20226;-68
2022/10/25 13:50:11;;;;;;;8.40;2.60;;;;;;;;;;5053567;28;20244;-68
2022/10/25 13:52:38;;;;;;;6.50;2.33;;;;;;;;;;5053543;28;20187;-68
2022/10/25 13:55:07;;;;;;;7.10;2.53;;;;;;;;;;5035439;28;20195;-68
2022/10/25 13:57:43;;;;;;;10.40;2.30;;;;;;;;;;5036690;28;20228;-68
2022/10/25 14:00:11;;;;;;;8.40;2.47;;;;;;;;;;5053909;28;20217;-67
2022/10/25 14:02:57;;;;;;;7.83;2.77;;;;;;;;;;5036320;28;20554;-68
2022/10/25 14:05:42;;;;;;;10.97;2.97;;;;;;;;;;5045738;28;20190;-68
2022/10/25 14:08:35;;;;;;;10.27;3.07;;;;;;;;;;5052961;28;20225;-67
2022/10/25 14:11:03;;;;;;;9.33;2.53;;;;;;;;;;5023468;28;20564;-67
2022/10/25 14:13:33;;;;;;;8.70;2.80;;;;;;;;;;5035991;28;20650;-68
2022/10/25 14:16:02;;;;;;;7.17;2.80;;;;;;;;;;5035751;28;20244;-67
2022/10/25 14:18:28;;;;;;;9.07;2.50;;;;;;;;;;5036026;28;20676;-67
2022/10/25 14:20:57;;;;;;;8.77;3.00;;;;;;;;;;5035447;28;20690;-67
2022/10/25 14:23:25;;;;;;;7.27;2.90;;;;;;;;;;5052469;28;20224;-67
2022/10/25 14:25:54;;;;;;;8.10;3.27;;;;;;;;;;5034858;28;20731;-67
2022/10/25 14:28:25;;;;;;;9.77;3.27;;;;;;;;;;5035059;28;20191;-66
2022/10/25 14:30:55;;;;;;;10.33;3.43;;;;;;;;;;5052270;28;20278;-67
2022/10/25 14:33:26;;;;;;;5.97;3.40;;;;;;;;;;5035123;28;20221;-68
2022/10/25 14:36:06;;;;;;;8.77;3.30;;;;;;;;;;5053097;28;20201;-71
2022/10/25 14:38:47;;;;;;;8.00;3.33;;;;;;;;;;5035444;28;20581;-67
2022/10/25 14:41:14;;;;;;;10.50;3.17;;;;;;;;;;5052274;28;20187;-67
2022/10/25 14:43:41;;;;;;;5.70;2.87;;;;;;;;;;5034550;28;20190;-66
2022/10/25 14:46:12;;;;;;;7.30;3.20;;;;;;;;;;5052184;28;20218;-66
2022/10/25 14:48:39;;;;;;;9.27;3.40;;;;;;;;;;5052799;28;20236;-68